Time;durP1;ratioP1;P1;durP2;ratioP2;P2;SDS_P1;SDS_P2;PMS_P1;PMS_P2;Temp;Humidity;BMP_temperature;BMP_pressure;BME280_temperature;BME280_humidity;BME280_pressure;Samples;Min_cycle;Max_cycle;Signal;HPM_P1;HPM_P2
2023/02/13 00:00:10;;;;;;;6.43;4.53;;;;;;;1.62;70.89;103362.53;5087835;28;20078;-83
2023/02/13 00:02:36;;;;;;;10.05;7.97;;;;;;;1.66;70.70;103372.00;5070903;28;20032;-83
2023/02/13 00:05:01;;;;;;;14.05;6.28;;;;;;;1.65;70.80;103363.50;5087725;28;20073;-83
2023/02/13 00:07:26;;;;;;;5.25;4.35;;;;;;;1.67;70.68;103366.09;5087334;28;20029;-83
2023/02/13 00:09:52;;;;;;;9.38;4.82;;;;;;;1.72;70.54;103365.44;5053764;28;20029;-83
2023/02/13 00:12:17;;;;;;;6.03;4.97;;;;;;;1.68;70.90;103372.97;5070371;28;20032;-83
2023/02/13 00:14:43;;;;;;;12.07;6.32;;;;;;;1.73;71.52;103385.03;5070632;28;20032;-83
2023/02/13 00:17:08;;;;;;;7.25;5.78;;;;;;;1.82;70.94;103379.34;5087287;28;20032;-83
2023/02/13 00:19:34;;;;;;;11.02;6.47;;;;;;;1.82;70.48;103368.28;5070455;28;20488;-83
2023/02/13 00:21:59;;;;;;;11.40;6.68;;;;;;;1.84;70.79;103370.03;5087472;28;20028;-83
2023/02/13 00:24:25;;;;;;;12.65;6.18;;;;;;;1.87;70.57;103359.06;5086745;28;20496;-83
2023/02/13 00:26:50;;;;;;;7.38;6.57;;;;;;;1.99;70.54;103383.28;5070563;28;20031;-83
2023/02/13 00:29:16;;;;;;;7.80;6.55;;;;;;;1.69;70.39;103332.16;5070368;28;20032;-83
2023/02/13 00:31:41;;;;;;;8.10;5.38;;;;;;;1.95;70.21;103368.69;5070078;28;20521;-83
2023/02/13 00:34:06;;;;;;;7.60;5.95;;;;;;;2.12;69.66;103399.84;5086989;28;20032;-83
2023/02/13 00:36:32;;;;;;;13.48;6.78;;;;;;;2.13;69.49;103398.16;5069974;28;20484;-83
2023/02/13 00:38:57;;;;;;;11.70;7.07;;;;;;;1.99;69.31;103382.44;5069866;28;20032;-83
2023/02/13 00:41:23;;;;;;;10.95;6.72;;;;;;;1.88;69.40;103364.22;5070214;28;20029;-83
2023/02/13 00:43:48;;;;;;;7.95;7.05;;;;;;;1.94;69.45;103378.84;5070411;28;20483;-83
2023/02/13 00:46:15;;;;;;;9.05;7.05;;;;;;;1.93;69.24;103388.19;5070080;28;20111;-83
2023/02/13 00:48:40;;;;;;;14.90;8.13;;;;;;;1.87;69.39;103377.81;5086598;28;20029;-83
2023/02/13 00:51:06;;;;;;;14.30;6.18;;;;;;;1.90;69.00;103394.91;5069789;28;20028;-83
2023/02/13 00:53:31;;;;;;;14.43;6.32;;;;;;;1.89;69.03;103388.06;5085641;28;20028;-83
2023/02/13 00:55:57;;;;;;;7.35;4.75;;;;;;;1.71;69.59;103370.50;5069605;28;20035;-83
2023/02/13 00:58:22;;;;;;;11.00;5.15;;;;;;;1.76;70.05;103384.25;5069601;28;20056;-83
2023/02/13 01:00:48;;;;;;;9.13;5.57;;;;;;;1.62;69.74;103367.66;5069872;28;20427;-83
2023/02/13 01:03:14;;;;;;;6.97;5.85;;;;;;;1.60;69.91;103379.50;5086715;28;20039;-83
2023/02/13 01:05:40;;;;;;;8.27;5.65;;;;;;;1.68;69.50;103376.38;5069816;28;20081;-83
2023/02/13 01:08:06;;;;;;;15.15;7.45;;;;;;;1.68;69.19;103380.63;5086119;28;20048;-83
2023/02/13 01:10:31;;;;;;;8.52;4.70;;;;;;;1.60;69.59;103371.84;5086248;28;20028;-83
2023/02/13 01:12:57;;;;;;;8.98;5.35;;;;;;;1.49;69.86;103348.53;5086578;28;20487;-83
2023/02/13 01:15:22;;;;;;;8.25;6.15;;;;;;;1.67;69.67;103368.63;5086566;28;20028;-83
2023/02/13 01:17:48;;;;;;;7.10;6.38;;;;;;;1.64;69.77;103378.75;5069607;28;20044;-83
2023/02/13 01:20:13;;;;;;;9.02;6.78;;;;;;;1.51;69.81;103371.53;5086108;28;20082;-83
2023/02/13 01:22:39;;;;;;;10.43;5.70;;;;;;;1.46;69.86;103380.72;5086034;28;20028;-83
2023/02/13 01:25:04;;;;;;;7.93;5.32;;;;;;;1.32;70.12;103380.28;5069436;28;20017;-83
2023/02/13 01:27:31;;;;;;;8.88;6.75;;;;;;;1.25;70.83;103379.19;5086273;28;20499;-83
2023/02/13 01:29:56;;;;;;;8.55;7.22;;;;;;;0.86;70.80;103318.41;5086246;28;20033;-83
2023/02/13 01:32:22;;;;;;;9.68;6.18;;;;;;;1.20;71.41;103380.75;5052594;28;20031;-83
2023/02/13 01:34:47;;;;;;;9.23;5.57;;;;;;;1.03;71.34;103371.66;5086204;28;20028;-83
2023/02/13 01:37:13;;;;;;;6.70;5.22;;;;;;;1.07;71.51;103386.22;5070030;28;20036;-83
2023/02/13 01:39:38;;;;;;;11.05;5.72;;;;;;;0.94;71.67;103381.53;5086271;28;20032;-83
2023/02/13 01:42:04;;;;;;;8.02;5.50;;;;;;;0.98;71.94;103371.47;5086176;28;20498;-83
2023/02/13 01:44:55;;;;;;;5.70;4.18;;;;;;;1.02;71.27;103380.97;5069304;28;20034;-83
2023/02/13 01:47:24;;;;;;;5.43;4.60;;;;;;;1.01;71.78;103374.16;5086096;28;20038;-83
2023/02/13 01:49:54;;;;;;;5.22;4.00;;;;;;;0.97;71.66;103374.84;5052582;28;20478;-83
2023/02/13 01:52:20;;;;;;;7.78;6.10;;;;;;;0.94;71.44;103366.22;5085178;28;20036;-83
2023/02/13 01:54:45;;;;;;;6.10;5.05;;;;;;;0.89;71.51;103358.44;5086338;28;20037;-83
2023/02/13 01:57:17;;;;;;;9.05;5.60;;;;;;;1.00;71.42;103374.09;5086080;28;20564;-83
2023/02/13 01:59:52;;;;;;;6.82;5.65;;;;;;;1.02;71.73;103370.78;5069128;28;20525;-83
2023/02/13 02:02:17;;;;;;;6.00;5.40;;;;;;;0.89;72.18;103345.69;5085420;28;20054;-83
2023/02/13 02:04:43;;;;;;;8.05;4.80;;;;;;;1.07;72.58;103374.34;5072180;28;20527;-83
2023/02/13 02:07:23;;;;;;;9.40;5.63;;;;;;;1.00;72.81;103366.44;5072861;28;20476;-83
2023/02/13 02:09:48;;;;;;;9.23;6.72;;;;;;;1.03;72.24;103364.00;5089898;28;20100;-83
2023/02/13 02:12:35;;;;;;;8.43;6.35;;;;;;;0.95;71.73;103358.63;5072759;28;20024;-83
2023/02/13 02:15:00;;;;;;;9.68;5.22;;;;;;;1.04;72.32;103374.25;5072799;28;20032;-83
2023/02/13 02:17:26;;;;;;;8.70;5.95;;;;;;;1.08;72.31;103377.75;5073030;28;20078;-83
2023/02/13 02:20:13;;;;;;;11.35;5.57;;;;;;;1.18;72.44;103376.38;5072931;28;20036;-83
2023/02/13 02:22:50;;;;;;;13.30;8.30;;;;;;;1.27;72.18;103380.09;5056222;28;20036;-83
2023/02/13 02:25:17;;;;;;;5.57;4.75;;;;;;;1.08;72.11;103352.25;5074066;28;20056;-83
2023/02/13 02:27:55;;;;;;;15.00;7.43;;;;;;;1.27;72.43;103387.75;5089428;28;20025;-83
2023/02/13 02:30:54;;;;;;;18.35;6.60;;;;;;;0.97;72.59;103328.09;5089456;28;20469;-83
2023/02/13 02:33:29;;;;;;;7.25;6.30;;;;;;;1.19;71.93;103368.81;5087040;28;20036;-83
2023/02/13 02:36:01;;;;;;;7.70;6.25;;;;;;;1.27;71.81;103386.88;5088481;28;20419;-83
2023/02/13 02:38:40;;;;;;;6.45;4.85;;;;;;;1.25;72.25;103383.44;5055920;28;20028;-83
2023/02/13 02:41:11;;;;;;;9.55;6.38;;;;;;;1.20;72.37;103374.78;5055869;28;20462;-83
2023/02/13 02:44:02;;;;;;;6.60;5.28;;;;;;;1.29;71.96;103375.94;5055782;28;20403;-83
2023/02/13 02:46:33;;;;;;;4.68;4.28;;;;;;;1.27;72.12;103382.66;5072337;28;20056;-83
2023/02/13 02:52:08;;;;;;;8.60;5.70;;;;;;;1.21;71.61;103377.38;5086520;28;20047;-83
2023/02/13 03:06:09;;;;;;;6.05;5.28;;;;;;;1.09;71.62;103366.78;5072220;28;20090;-83
2023/02/13 03:06:10;;;;;;;7.22;4.85;;;;;;;1.11;72.86;103371.09;5049820;28;20054;-83
2023/02/13 03:14:05;;;;;;;5.72;5.10;;;;;;;1.14;73.32;103383.06;5086084;28;20040;-83
2023/02/13 03:22:41;;;;;;;6.10;4.65;;;;;;;1.09;73.17;103385.47;5071688;28;20093;-83
2023/02/13 03:25:10;;;;;;;10.25;4.93;;;;;;;1.12;73.12;103389.81;5088422;28;20056;-83
2023/02/13 03:30:58;;;;;;;9.30;5.65;;;;;;;1.10;73.19;103389.75;5072738;28;20039;-83
2023/02/13 03:33:29;;;;;;;10.20;5.25;;;;;;;0.95;73.46;103373.06;5071162;28;20024;-83
2023/02/13 03:38:53;;;;;;;7.55;5.70;;;;;;;1.09;73.35;103392.25;5072723;28;20507;-83
2023/02/13 03:41:40;;;;;;;12.55;6.13;;;;;;;1.07;73.52;103393.88;5088210;28;20077;-83
2023/02/13 03:44:06;;;;;;;6.80;5.63;;;;;;;1.12;72.77;103402.56;5071757;28;20036;-83
2023/02/13 03:46:33;;;;;;;5.53;3.78;;;;;;;0.99;72.53;103385.13;5072827;28;20032;-83
2023/02/13 03:51:49;;;;;;;7.22;5.68;;;;;;;0.90;72.39;103388.22;5085376;28;20038;-83
2023/02/13 04:00:04;;;;;;;6.60;4.75;;;;;;;0.78;72.86;103401.34;5085191;28;20090;-84
2023/02/13 04:02:35;;;;;;;9.48;4.85;;;;;;;0.90;72.68;103395.84;5087393;28;20111;-84
2023/02/13 04:05:38;;;;;;;6.32;4.47;;;;;;;0.89;72.12;103403.44;5070668;28;20508;-83
2023/02/13 04:08:03;;;;;;;15.35;7.15;;;;;;;0.81;72.73;103388.75;5013042;28;20053;-83
2023/02/13 04:10:29;;;;;;;7.93;5.60;;;;;;;0.89;72.55;103393.25;5046128;28;20082;-83
2023/02/13 04:13:20;;;;;;;8.07;5.97;;;;;;;0.91;72.72;103400.13;5087283;28;20040;-83
2023/02/13 04:15:57;;;;;;;6.22;4.93;;;;;;;0.84;72.59;103391.41;5071730;28;20107;-83
2023/02/13 04:18:24;;;;;;;8.00;6.22;;;;;;;0.84;72.45;103398.19;5085978;28;20028;-83
2023/02/13 04:20:50;;;;;;;9.82;5.93;;;;;;;0.76;72.74;103392.78;5087005;28;20032;-83
2023/02/13 04:23:15;;;;;;;7.00;6.30;;;;;;;0.73;73.44;103396.94;5087195;28;20414;-83
2023/02/13 04:25:43;;;;;;;5.80;4.20;;;;;;;0.77;73.32;103411.50;5070338;28;20028;-83
2023/02/13 04:28:08;;;;;;;9.18;4.85;;;;;;;0.78;73.16;103398.81;5070183;28;20028;-83
2023/02/13 04:30:34;;;;;;;9.40;5.28;;;;;;;0.78;73.35;103401.34;5053510;28;20045;-83
2023/02/13 04:32:59;;;;;;;9.80;6.07;;;;;;;0.81;73.02;103406.59;5070012;28;20024;-82
2023/02/13 04:35:25;;;;;;;5.10;4.30;;;;;;;0.80;73.47;103404.84;5069668;28;20037;-80
2023/02/13 04:37:50;;;;;;;7.55;5.75;;;;;;;0.72;73.12;103393.50;5086646;28;20414;-82
2023/02/13 04:40:16;;;;;;;7.80;6.10;;;;;;;0.75;72.75;103401.25;5069884;28;20059;-84
2023/02/13 04:42:41;;;;;;;9.90;6.88;;;;;;;0.64;73.15;103392.38;5086909;28;20032;-80
2023/02/13 04:45:09;;;;;;;9.85;5.78;;;;;;;0.55;73.61;103379.28;5053130;28;20052;-80
2023/02/13 04:47:34;;;;;;;10.45;5.78;;;;;;;0.79;73.26;103410.78;5070008;28;20032;-80
2023/02/13 04:50:00;;;;;;;12.57;6.45;;;;;;;0.67;73.32;103386.50;5069718;28;20028;-80
2023/02/13 04:52:25;;;;;;;6.38;5.05;;;;;;;0.76;72.83;103400.44;5069691;28;20031;-80
2023/02/13 04:54:51;;;;;;;6.20;5.05;;;;;;;0.70;73.45;103401.94;5069855;28;20392;-79
2023/02/13 04:57:16;;;;;;;4.95;3.92;;;;;;;0.67;73.39;103415.41;5069693;28;20043;-83
2023/02/13 04:59:42;;;;;;;5.68;5.15;;;;;;;0.51;73.29;103390.19;5085867;28;20093;-83
2023/02/13 05:02:07;;;;;;;5.45;3.67;;;;;;;0.59;73.62;103411.72;5052939;28;20025;-82
2023/02/13 05:04:33;;;;;;;9.10;7.38;;;;;;;0.60;73.81;103408.38;5068880;28;20024;-82
2023/02/13 05:06:58;;;;;;;12.23;6.25;;;;;;;0.64;74.00;103415.28;5069137;28;20450;-81
2023/02/13 05:09:23;;;;;;;10.88;6.07;;;;;;;0.48;73.75;103395.16;5069376;28;20064;-81
2023/02/13 05:11:52;;;;;;;6.13;5.47;;;;;;;0.52;73.95;103422.50;5068161;28;20040;-81
2023/02/13 05:14:18;;;;;;;10.07;6.38;;;;;;;0.54;74.73;103405.59;5063468;28;20040;-80
2023/02/13 05:16:43;;;;;;;8.65;6.28;;;;;;;0.67;75.02;103407.75;5069370;28;20480;-85
2023/02/13 05:19:09;;;;;;;9.80;7.82;;;;;;;0.67;74.81;103410.31;5069003;28;20063;-83
2023/02/13 05:24:18;;;;;;;10.15;6.88;;;;;;;0.70;74.95;103404.47;5081111;28;20439;-89
2023/02/13 05:26:44;;;;;;;9.30;5.68;;;;;;;0.79;74.78;103422.66;5066511;28;20041;-91
2023/02/13 05:29:18;;;;;;;7.38;4.70;;;;;;;0.86;75.14;103419.47;5054073;28;20031;-87
2023/02/13 05:31:52;;;;;;;7.30;6.60;;;;;;;0.90;74.75;103416.25;5069649;28;20036;-88
2023/02/13 05:34:18;;;;;;;10.25;6.03;;;;;;;1.08;73.96;103437.28;5049589;28;20059;-85
2023/02/13 05:36:43;;;;;;;7.40;4.60;;;;;;;0.90;74.25;103406.03;5051058;28;20036;-78
2023/02/13 05:39:09;;;;;;;13.77;7.32;;;;;;;1.08;73.76;103414.34;5085062;28;20025;-88
2023/02/13 05:41:34;;;;;;;11.85;5.57;;;;;;;1.09;73.88;103407.56;5056339;28;20079;-91
2023/02/13 05:44:00;;;;;;;7.03;6.38;;;;;;;1.15;73.69;103412.84;5050855;28;20029;-85
2023/02/13 05:46:25;;;;;;;15.30;6.15;;;;;;;1.26;73.80;103425.97;5073856;28;20051;-93
2023/02/13 05:48:51;;;;;;;6.65;5.43;;;;;;;1.38;73.54;103437.47;5067843;28;20500;-87
2023/02/13 05:51:18;;;;;;;9.68;5.85;;;;;;;1.22;73.39;103409.69;5044102;28;20506;-85
2023/02/13 05:53:43;;;;;;;8.35;5.07;;;;;;;1.39;73.12;103433.25;5072618;28;20632;-88
2023/02/13 05:56:08;;;;;;;7.68;5.43;;;;;;;1.44;73.19;103437.66;5067604;28;20029;-87
2023/02/13 05:58:34;;;;;;;9.95;7.65;;;;;;;1.38;73.04;103424.72;5069525;28;20027;-91
2023/02/13 06:00:59;;;;;;;5.38;4.68;;;;;;;1.40;72.94;103412.00;5074630;28;20033;-78
2023/02/13 06:03:26;;;;;;;8.57;5.93;;;;;;;1.61;73.13;103450.13;5084226;28;20392;-89
2023/02/13 06:05:52;;;;;;;8.63;6.88;;;;;;;1.65;72.86;103441.75;5069392;28;20043;-85
2023/02/13 06:08:17;;;;;;;5.57;5.00;;;;;;;1.78;72.47;103438.78;5069027;28;20547;-81
2023/02/13 06:10:43;;;;;;;8.70;7.90;;;;;;;1.76;72.04;103430.19;5068879;28;20071;-85
2023/02/13 06:13:08;;;;;;;12.38;7.75;;;;;;;1.83;72.02;103442.34;5087655;28;20028;-84
2023/02/13 06:15:34;;;;;;;11.68;5.90;;;;;;;1.78;71.70;103438.78;5081420;28;20139;-83
2023/02/13 06:18:00;;;;;;;15.13;5.10;;;;;;;1.84;71.79;103443.22;5093481;28;20086;-88
2023/02/13 06:20:25;;;;;;;11.45;7.40;;;;;;;1.90;72.03;103458.72;5062918;28;20099;-93
2023/02/13 06:22:51;;;;;;;11.52;7.30;;;;;;;1.95;71.27;103442.72;5036470;28;20040;-89
2023/02/13 06:25:16;;;;;;;6.60;5.15;;;;;;;2.00;70.92;103446.31;5062375;28;20028;-87
2023/02/13 06:27:42;;;;;;;8.27;6.35;;;;;;;2.13;70.55;103449.22;5067571;28;20036;-94
2023/02/13 06:30:08;;;;;;;7.70;5.35;;;;;;;2.09;70.76;103444.84;5069861;28;20024;-84
2023/02/13 06:32:33;;;;;;;18.90;7.45;;;;;;;2.04;71.17;103444.69;5085946;28;20499;-80
2023/02/13 06:34:59;;;;;;;10.40;7.75;;;;;;;1.94;71.18;103419.69;5071757;28;20028;-81
2023/02/13 06:37:24;;;;;;;10.38;8.25;;;;;;;2.02;72.29;103438.69;5075475;28;20098;-94
2023/02/13 06:39:50;;;;;;;13.68;8.82;;;;;;;1.89;72.74;103423.81;5068494;28;20453;-96
2023/02/13 06:42:17;;;;;;;11.27;7.72;;;;;;;2.04;73.02;103436.19;5062152;28;20040;-89
2023/02/13 06:44:42;;;;;;;9.65;7.63;;;;;;;1.94;73.22;103425.66;5075862;28;20495;-83
2023/02/13 06:47:08;;;;;;;10.52;8.35;;;;;;;1.95;72.87;103427.41;5068863;28;20040;-95
2023/02/13 06:49:33;;;;;;;12.30;7.57;;;;;;;2.08;73.14;103444.00;5071871;28;20457;-95
2023/02/13 06:51:59;;;;;;;11.80;7.97;;;;;;;2.07;73.14;103454.16;5089119;28;20051;-92
2023/02/13 06:54:24;;;;;;;10.93;8.63;;;;;;;2.22;73.22;103452.94;5078484;28;20043;-91
2023/02/13 06:56:50;;;;;;;15.45;10.25;;;;;;;2.19;73.26;103441.78;5074499;28;20024;-90
2023/02/13 06:59:15;;;;;;;9.13;7.22;;;;;;;2.19;72.85;103436.66;5056865;28;20036;-85
2023/02/13 07:01:40;;;;;;;17.48;7.65;;;;;;;2.36;72.59;103453.38;5089400;28;20020;-94
2023/02/13 07:04:06;;;;;;;11.60;7.15;;;;;;;2.32;72.54;103443.00;5091638;28;20499;-84
2023/02/13 07:06:31;;;;;;;10.95;8.05;;;;;;;2.42;72.09;103450.13;5065845;28;20407;-85
2023/02/13 07:08:57;;;;;;;13.02;7.72;;;;;;;2.49;71.38;103462.25;5054377;28;20056;-83
2023/02/13 07:11:23;;;;;;;14.23;7.90;;;;;;;2.52;71.24;103458.09;5070914;28;20036;-91
2023/02/13 07:13:48;;;;;;;11.35;8.65;;;;;;;2.65;70.89;103468.66;5081791;28;20039;-92
2023/02/13 07:16:14;;;;;;;8.73;7.50;;;;;;;2.66;70.75;103449.97;5073623;28;20028;-86
2023/02/13 07:18:39;;;;;;;10.73;8.10;;;;;;;2.65;70.53;103453.34;5069093;28;20029;-86
2023/02/13 07:21:05;;;;;;;13.77;9.05;;;;;;;2.70;70.39;103462.03;5069557;28;20040;-88
2023/02/13 07:23:31;;;;;;;7.72;5.35;;;;;;;2.75;69.81;103463.00;5071822;28;20081;-94
2023/02/13 07:26:00;;;;;;;7.50;6.10;;;;;;;2.85;69.24;103475.22;5071569;28;20028;-89
2023/02/13 07:28:26;;;;;;;9.30;6.13;;;;;;;2.90;69.71;103471.13;5055731;28;20541;-95
2023/02/13 07:30:51;;;;;;;9.95;7.55;;;;;;;2.84;69.74;103441.13;5035638;22;20060;-89
2023/02/13 07:33:17;;;;;;;16.55;7.13;;;;;;;3.02;69.77;103470.59;5033766;28;20095;-86
2023/02/13 07:35:49;;;;;;;8.45;7.45;;;;;;;3.08;69.42;103460.53;5036595;28;20034;-95
2023/02/13 07:38:15;;;;;;;7.72;6.05;;;;;;;3.10;69.21;103448.66;5032831;28;20033;-96
2023/02/13 07:40:40;;;;;;;9.32;7.85;;;;;;;3.11;69.28;103456.34;5013289;28;20033;-86
2023/02/13 07:43:06;;;;;;;15.98;7.20;;;;;;;3.21;69.02;103462.59;5026474;28;20113;-85
2023/02/13 07:45:31;;;;;;;11.35;7.97;;;;;;;3.38;68.78;103463.03;5023120;28;20379;-85
2023/02/13 07:47:57;;;;;;;8.80;6.95;;;;;;;3.45;68.51;103464.94;5022222;28;20029;-84
2023/02/13 07:50:22;;;;;;;9.60;7.68;;;;;;;3.32;68.31;103429.59;5030527;28;20095;-86
2023/02/13 07:52:54;;;;;;;9.30;6.82;;;;;;;3.61;67.92;103461.94;5027691;28;20037;-91
2023/02/13 07:55:19;;;;;;;8.43;5.70;;;;;;;3.57;67.94;103452.44;5046232;28;20476;-84
2023/02/13 07:57:45;;;;;;;13.20;7.72;;;;;;;3.62;67.72;103440.63;5026393;28;20041;-93
2023/02/13 08:00:11;;;;;;;12.80;8.65;;;;;;;3.69;67.69;103436.53;5038593;28;20041;-87
2023/02/13 08:02:36;;;;;;;25.75;14.77;;;;;;;3.72;67.50;103426.34;5000229;28;20109;-92
2023/02/13 08:05:02;;;;;;;19.60;14.40;;;;;;;3.82;67.74;103430.84;5014065;28;20033;-88
2023/02/13 08:07:27;;;;;;;10.52;7.88;;;;;;;3.81;67.53;103446.19;5051438;28;20040;-92
2023/02/13 08:12:37;;;;;;;10.65;6.45;;;;;;;3.76;67.73;103417.06;5024070;28;20044;-90
2023/02/13 08:15:03;;;;;;;22.98;9.85;;;;;;;3.85;68.15;103438.63;5013124;28;20025;-85
2023/02/13 08:17:28;;;;;;;10.55;7.18;;;;;;;3.65;68.30;103409.13;5015385;28;20571;-87
2023/02/13 08:19:54;;;;;;;14.30;7.53;;;;;;;3.94;68.44;103432.88;5046172;28;20029;-92
2023/02/13 08:22:19;;;;;;;11.20;9.75;;;;;;;4.13;67.71;103437.59;5029396;28;20390;-85
2023/02/13 08:24:45;;;;;;;15.63;9.18;;;;;;;4.09;67.60;103407.59;5052828;28;20029;-87
2023/02/13 08:27:14;;;;;;;18.38;11.70;;;;;;;4.36;66.90;103432.09;5025795;28;20032;-92
2023/02/13 08:29:39;;;;;;;15.90;9.18;;;;;;;4.64;64.43;103428.41;5028734;28;20127;-90
2023/02/13 08:32:05;;;;;;;5.80;4.97;;;;;;;4.98;60.87;103443.63;5014667;28;20483;-92
2023/02/13 08:34:31;;;;;;;3.80;1.52;;;;;;;5.33;57.66;103433.16;4999351;28;20404;-87
2023/02/13 08:36:56;;;;;;;5.47;4.07;;;;;;;5.61;56.17;103429.34;5022680;28;20037;-92
2023/02/13 08:39:22;;;;;;;4.60;3.15;;;;;;;5.82;55.94;103434.81;5022417;28;20057;-92
2023/02/13 08:41:47;;;;;;;7.38;3.75;;;;;;;5.77;54.65;103400.47;5026313;28;20032;-88
2023/02/13 08:44:13;;;;;;;6.60;4.45;;;;;;;6.10;54.56;103423.28;5046181;28;20396;-85
2023/02/13 08:46:38;;;;;;;3.70;3.35;;;;;;;6.35;54.12;103421.03;5031282;28;20033;-84
2023/02/13 08:49:03;;;;;;;4.00;2.45;;;;;;;6.48;53.99;103428.91;5043507;28;20033;-81
2023/02/13 08:51:29;;;;;;;5.10;3.92;;;;;;;6.67;53.12;103424.00;5013235;28;20046;-80
2023/02/13 08:53:54;;;;;;;6.47;4.05;;;;;;;6.55;51.64;103394.72;5027490;28;20029;-81
2023/02/13 08:56:20;;;;;;;8.43;5.55;;;;;;;6.68;50.71;103405.16;5030072;28;20037;-82
2023/02/13 08:58:49;;;;;;;4.53;3.30;;;;;;;6.72;50.20;103418.09;5030530;28;20029;-90
2023/02/13 09:01:14;;;;;;;4.32;2.75;;;;;;;6.64;50.57;103385.38;5015125;28;20053;-91
2023/02/13 09:03:39;;;;;;;4.13;3.58;;;;;;;6.93;49.46;103432.91;5023262;28;20057;-93
2023/02/13 09:06:05;;;;;;;6.18;4.72;;;;;;;7.00;48.66;103434.69;5029967;28;20030;-90
2023/02/13 09:08:31;;;;;;;3.90;2.70;;;;;;;7.08;48.88;103420.19;5030167;28;20104;-88
2023/02/13 09:11:01;;;;;;;6.53;3.70;;;;;;;7.19;47.87;103428.03;5027530;28;20108;-93
2023/02/13 09:13:32;;;;;;;6.75;4.72;;;;;;;7.20;46.46;103416.88;5007811;28;20037;-87
2023/02/13 09:16:01;;;;;;;6.25;4.80;;;;;;;7.38;46.55;103434.22;5045091;28;20088;-90
2023/02/13 09:18:27;;;;;;;6.70;4.57;;;;;;;7.35;45.97;103410.97;5038148;28;20424;-88
2023/02/13 09:21:03;;;;;;;5.38;3.63;;;;;;;7.36;47.34;103425.59;5009107;28;20038;-83
2023/02/13 09:23:32;;;;;;;3.95;2.70;;;;;;;7.13;47.85;103374.75;5028881;28;20061;-81
2023/02/13 09:26:00;;;;;;;6.68;4.05;;;;;;;7.45;47.12;103408.50;5028362;28;20057;-80
2023/02/13 09:28:25;;;;;;;6.22;3.83;;;;;;;7.67;47.53;103414.72;5013035;28;20029;-90
2023/02/13 09:30:50;;;;;;;3.55;2.60;;;;;;;7.52;46.85;103412.00;5012460;28;20416;-94
2023/02/13 09:33:16;;;;;;;7.28;3.80;;;;;;;7.62;46.85;103402.63;5054602;28;20543;-84
2023/02/13 09:35:42;;;;;;;8.32;4.80;;;;;;;7.84;46.41;103396.78;5027057;28;20026;-88
2023/02/13 09:38:08;;;;;;;4.82;3.25;;;;;;;7.87;44.76;103401.09;5046954;28;20099;-95
2023/02/13 09:40:52;;;;;;;8.73;5.13;;;;;;;7.83;44.29;103415.66;5039622;28;20057;-86
2023/02/13 09:43:30;;;;;;;9.95;4.25;;;;;;;7.74;44.06;103397.56;5044519;28;20041;-84
2023/02/13 09:46:02;;;;;;;11.98;4.72;;;;;;;7.92;45.48;103404.56;5027100;28;20059;-84
2023/02/13 09:48:30;;;;;;;6.68;4.95;;;;;;;7.90;43.89;103395.97;5028127;28;20061;-83
2023/02/13 09:50:56;;;;;;;9.20;4.65;;;;;;;7.81;43.83;103375.28;5000594;28;20475;-86
2023/02/13 09:53:23;;;;;;;7.70;3.90;;;;;;;7.89;45.11;103378.78;5034364;28;20064;-86
2023/02/13 09:56:08;;;;;;;10.63;5.05;;;;;;;8.05;44.47;103398.63;5021155;28;20244;-90
2023/02/13 09:58:40;;;;;;;6.53;5.25;;;;;;;8.24;44.49;103391.84;5033688;28;20021;-85
2023/02/13 10:01:28;;;;;;;9.38;6.10;;;;;;;8.49;44.69;103392.84;5014015;28;20029;-85
2023/02/13 10:04:25;;;;;;;7.53;4.65;;;;;;;8.43;43.56;103393.69;5018968;28;20030;-91
2023/02/13 10:07:07;;;;;;;6.03;4.47;;;;;;;8.19;43.58;103345.41;5046153;28;20144;-90
2023/02/13 10:09:48;;;;;;;3.13;2.00;;;;;;;8.39;43.44;103376.47;5031539;28;20107;-87
2023/02/13 10:12:19;;;;;;;13.38;5.22;;;;;;;8.43;43.49;103372.19;5027990;28;20025;-86
2023/02/13 10:14:51;;;;;;;7.35;5.00;;;;;;;8.42;43.72;103370.47;5033301;28;20025;-92
2023/02/13 10:17:39;;;;;;;19.40;6.22;;;;;;;8.45;43.40;103373.91;5028527;28;20026;-93
2023/02/13 10:20:07;;;;;;;10.50;4.32;;;;;;;8.52;42.70;103360.19;5020413;28;20117;-86
2023/02/13 10:22:37;;;;;;;8.18;4.03;;;;;;;8.52;41.18;103351.56;5004778;28;20524;-82
2023/02/13 10:25:05;;;;;;;9.88;5.38;;;;;;;8.67;42.14;103359.38;5012490;28;20044;-79
2023/02/13 10:27:30;;;;;;;5.97;4.25;;;;;;;8.77;42.19;103355.94;5046372;28;20022;-79
2023/02/13 10:30:21;;;;;;;7.70;5.30;;;;;;;8.74;42.13;103340.44;5046227;28;20060;-81
2023/02/13 10:33:18;;;;;;;7.78;4.55;;;;;;;8.95;42.04;103342.22;5029625;28;20038;-85
2023/02/13 10:35:47;;;;;;;6.40;4.13;;;;;;;8.86;40.01;103337.03;5050900;28;20041;-94
2023/02/13 10:38:19;;;;;;;8.90;5.40;;;;;;;8.70;41.66;103325.81;5008099;28;20107;-88
2023/02/13 10:41:04;;;;;;;7.00;4.72;;;;;;;8.88;41.92;103325.00;5010620;28;20068;-80
2023/02/13 10:43:52;;;;;;;7.75;4.78;;;;;;;8.96;39.74;103314.69;5039114;28;20032;-87
2023/02/13 10:46:52;;;;;;;14.27;5.68;;;;;;;9.07;39.34;103313.81;5047513;28;20064;-81
2023/02/13 10:49:52;;;;;;;8.30;5.68;;;;;;;9.06;39.89;103319.84;5013781;28;20037;-84
2023/02/13 10:52:55;;;;;;;6.20;3.65;;;;;;;9.08;40.84;103317.25;5016778;28;20517;-82
2023/02/13 10:55:20;;;;;;;16.38;4.65;;;;;;;9.16;40.14;103297.47;5019434;28;20079;-82
2023/02/13 10:58:11;;;;;;;10.70;6.25;;;;;;;9.18;39.43;103278.50;5032064;28;20025;-86
2023/02/13 11:00:47;;;;;;;8.50;4.95;;;;;;;9.36;39.53;103308.63;5034637;28;20092;-83
2023/02/13 11:03:18;;;;;;;5.60;4.03;;;;;;;9.29;39.66;103275.91;5032381;28;20417;-84
2023/02/13 11:05:44;;;;;;;10.90;4.80;;;;;;;9.51;40.17;103286.19;5001329;28;20030;-82
2023/02/13 11:08:33;;;;;;;10.00;2.80;;;;;;;9.61;40.23;103275.84;5022491;28;20092;-84
2023/02/13 11:10:58;;;;;;;9.40;5.30;;;;;;;9.55;40.73;103269.84;5014539;28;20033;-84
2023/02/13 11:13:25;;;;;;;7.45;4.75;;;;;;;9.58;39.93;103256.91;5013445;28;20075;-86
2023/02/13 11:16:06;;;;;;;8.20;4.93;;;;;;;9.66;39.33;103273.25;5027677;28;20040;-80
2023/02/13 11:18:33;;;;;;;5.90;3.95;;;;;;;9.69;39.63;103270.66;5047558;28;20110;-87
2023/02/13 11:21:02;;;;;;;11.63;4.78;;;;;;;9.89;39.02;103258.50;5031049;28;20102;-85
2023/02/13 11:23:28;;;;;;;10.38;4.82;;;;;;;9.92;37.75;103252.47;5032158;28;20129;-93
2023/02/13 11:26:02;;;;;;;7.85;5.18;;;;;;;9.86;37.39;103266.28;5046605;28;20037;-88
2023/02/13 11:28:28;;;;;;;6.90;4.22;;;;;;;9.85;37.05;103255.97;5014939;28;20155;-86
2023/02/13 11:31:08;;;;;;;9.35;4.57;;;;;;;9.98;36.95;103242.97;5042246;28;20083;-90
2023/02/13 11:33:34;;;;;;;4.35;3.10;;;;;;;9.88;36.57;103230.09;5017457;28;20029;-84
2023/02/13 11:36:07;;;;;;;6.65;4.55;;;;;;;9.92;35.15;103206.78;5029865;28;20029;-80
2023/02/13 11:38:33;;;;;;;4.22;2.72;;;;;;;10.18;36.08;103229.91;5047854;28;20017;-86
2023/02/13 11:41:11;;;;;;;6.03;4.18;;;;;;;10.36;35.78;103230.72;5042679;28;20025;-83
2023/02/13 11:43:45;;;;;;;3.95;2.78;;;;;;;10.42;34.72;103215.13;5050735;28;20033;-91
2023/02/13 11:46:16;;;;;;;11.07;3.47;;;;;;;10.35;33.46;103222.09;5016606;28;20040;-88
2023/02/13 11:48:42;;;;;;;3.75;2.47;;;;;;;10.22;33.46;103194.56;5051494;28;20036;-89
2023/02/13 11:51:07;;;;;;;4.72;3.30;;;;;;;10.39;33.33;103200.50;5033950;28;20407;-83
2023/02/13 11:53:39;;;;;;;4.63;3.80;;;;;;;10.46;33.13;103178.03;5018633;28;20030;-88
2023/02/13 11:56:10;;;;;;;3.03;2.20;;;;;;;10.64;33.88;103214.13;5054523;28;20044;-92
2023/02/13 11:58:36;;;;;;;6.65;3.33;;;;;;;10.75;31.43;103198.50;5048413;28;20089;-93
2023/02/13 12:01:08;;;;;;;10.77;4.72;;;;;;;10.73;31.96;103158.81;5016942;28;20421;-85
2023/02/13 12:03:34;;;;;;;6.32;3.50;;;;;;;10.90;31.89;103177.63;5036804;28;20099;-89
2023/02/13 12:06:01;;;;;;;4.53;2.45;;;;;;;10.95;30.67;103183.63;5033832;28;20025;-93
2023/02/13 12:08:27;;;;;;;2.83;2.05;;;;;;;10.82;30.79;103164.75;5055298;28;20049;-95
2023/02/13 12:10:53;;;;;;;3.38;2.85;;;;;;;10.83;30.12;103174.25;5028438;28;20025;-81
2023/02/13 12:13:28;;;;;;;2.28;1.60;;;;;;;10.73;29.33;103166.59;5029360;28;20505;-87
2023/02/13 12:16:13;;;;;;;6.63;2.70;;;;;;;10.76;29.17;103169.13;5038430;28;20029;-90
2023/02/13 12:18:47;;;;;;;4.47;2.85;;;;;;;10.66;29.71;103160.59;5047900;28;20064;-91
2023/02/13 12:21:48;;;;;;;3.33;2.33;;;;;;;10.75;30.26;103162.25;5030973;28;20063;-87